Terminal Aerodrome Forecast
Issued by NWS Billings, MT

Home | Current Version | Previous Version | Text Only | Print | Product List | Glossary Off
Versions: 1 2 3 4 5 6 7 8 9 10 11 12 13 14 15 16 17 18

000
FTUS45 KBYZ 241130
TAFMLS
TAF
KMLS 241130Z 2412/2512 24008KT 6SM BR BKN005 BKN025
      TEMPO 2412/2414 FEW005 BKN200
     FM241400 26011KT P6SM FEW025 SCT200
     FM241700 27013G20KT P6SM FEW070 SCT150
     FM250200 25009KT P6SM SCT100=

USA.gov is the U.S. government's official web portal to all federal, state and local government web resources and services.